Terminal Aerodrome Forecast
Issued by NWS Brownsville, TX

Home | Current Version | Previous Version | Text Only | Print | Product List | Glossary On
Versions: 1 2 3 4 5 6 7 8 9 10 11 12 13
000
FTUS44 KBRO 271723
TAFMFE
TAF
KMFE 271723Z 2718/2818 31004KT P6SM SKC
     FM280200 15005KT P6SM SCT250
     FM281200 15006KT P6SM SKC
     FM281700 16011G17KT P6SM SKC=

USA.gov is the U.S. government's official web portal to all federal, state and local government web resources and services.